This is the latest recevied weather packets stored in our database for station/object SP6FIG-13. If no packets are shown the sender has not sent any weather packets the latest 10 day(s).
| Time | Temp. | Humidity | Pressure | Rain* | Wind** | Luminosity | Snow |
|---|---|---|---|---|---|---|---|
| 1777552459 | 22.22° C | 34% | 1030.9 hPa | - | - | - | - |
| 1777552159 | 21.67° C | 33% | 1030.8 hPa | - | - | - | - |
| 1777551859 | 21.67° C | 32% | 1030.6 hPa | - | - | - | - |
| 1777551559 | 21.67° C | 32% | 1030.6 hPa | - | - | - | - |
| 1777551259 | 21.11° C | 32% | 1030.9 hPa | - | - | - | - |
| 1777550959 | 21.11° C | 31% | 1031.4 hPa | - | - | - | - |
| 1777550659 | 21.11° C | 33% | 1031 hPa | - | - | - | - |
| 1777550359 | 21.11° C | 34% | 1030.9 hPa | - | - | - | - |
| 1777550059 | 20.56° C | 34% | 1031.3 hPa | - | - | - | - |
| 1777549759 | 20.56° C | 33% | 1031.7 hPa | - | - | - | - |
| 1777549459 | 21.11° C | 32% | 1031.6 hPa | - | - | - | - |
| 1777549159 | 21.11° C | 32% | 1031.9 hPa | - | - | - | - |
| 1777548859 | 21.11° C | 32% | 1029.7 hPa | - | - | - | - |
| 1777548559 | 20° C | 30% | 1033.8 hPa | - | - | - | - |
| 1777548259 | 21.67° C | 38% | 1031 hPa | - | - | - | - |
| 1777547959 | 21.11° C | 38% | 1031.5 hPa | - | - | - | - |
| 1777547659 | 21.11° C | 38% | 1031.5 hPa | - | - | - | - |
| 1777547359 | 21.11° C | 38% | 1031.7 hPa | - | - | - | - |
| 1777547059 | 21.67° C | 39% | 1031.5 hPa | - | - | - | - |
| 1777546760 | 21.67° C | 38% | 1031.6 hPa | - | - | - | - |
| 1777546459 | 21.67° C | 39% | 1031.5 hPa | - | - | - | - |
| 1777546159 | 21.67° C | 39% | 1031.5 hPa | - | - | - | - |
| 1777545859 | 21.11° C | 38% | 1031.6 hPa | - | - | - | - |
| 1777545559 | 21.11° C | 39% | 1031.6 hPa | - | - | - | - |
| 1777545259 | 21.11° C | 39% | 1031.6 hPa | - | - | - | - |
* Rain since midnight (hover to see other rain measurements)
** Current wind speed in m/s (hover to see current wind gust speed)